Pintada, New Mexico
Current Conditions -  °F | °C
As of 11:53 AM on Saturday 25 Oct 2014 (Local Time) from KCQC Reporting Station
Clear Clear  
Wind Chill: 71°   Ceiling: Unl
Heat Index: 71°   Visibility: 10mi
Dew Point: 27°   Wind: 17mph
Humidity: 19%   Direction: 280°W
Pressure: 30.35"   Gusts: 24mph
Location:  34.8581°N, 104.704°W
Report Text: KCQC 251753Z AUTO 28015G21KT 10SM CLR 22/M03 A3035 RMK AO2 SLP198 T02171028 10217 20067 58001
Loading
Personal Weather Stations






























Interactive Weather Map
Tropical Storm Tracking
New forecast layout! Learn more

10-Day Weather Forecast

Advertisements
Track Severe Weather on mobile